Time;durP1;ratioP1;P1;durP2;ratioP2;P2;SDS_P1;SDS_P2;PMS_P1;PMS_P2;Temp;Humidity;BMP_temperature;BMP_pressure;BME280_temperature;BME280_humidity;BME280_pressure;Samples;Min_cycle;Max_cycle;Signal;HPM_P1;HPM_P2
2022/05/17 00:03:05;;;;;;;17.77;7.07;;;16.40;99.90;;;;;;5044724;28;20299;-77
2022/05/17 00:05:48;;;;;;;22.10;7.72;;;16.30;99.90;;;;;;5020010;28;20033;-77
2022/05/17 00:09:07;;;;;;;18.63;7.43;;;16.20;99.90;;;;;;5026076;28;20478;-77
2022/05/17 00:12:26;;;;;;;16.30;7.13;;;16.30;99.90;;;;;;5032278;28;20045;-78
2022/05/17 00:15:23;;;;;;;;;;;16.20;99.90;;;;;;5035661;28;20052;-77
2022/05/17 00:18:50;;;;;;;18.40;6.80;;;16.20;99.90;;;;;;4960870;28;20048;-78
2022/05/17 00:22:17;;;;;;;18.40;6.70;;;16.20;99.90;;;;;;4985924;28;20041;-77
2022/05/17 00:25:40;;;;;;;15.57;7.03;;;16.10;99.90;;;;;;5014880;28;20085;-78
2022/05/17 00:29:15;;;;;;;16.70;5.85;;;16.00;99.90;;;;;;4950147;29;20070;-77
2022/05/17 00:32:25;;;;;;;13.27;6.03;;;16.40;99.90;;;;;;4958346;28;20086;-77
2022/05/17 00:35:28;;;;;;;18.02;6.97;;;16.00;99.90;;;;;;4980055;28;20073;-78
2022/05/17 00:39:02;;;;;;;19.00;6.82;;;16.00;99.90;;;;;;5023002;28;20038;-77
2022/05/17 00:43:10;;;;;;;16.23;6.32;;;15.90;99.90;;;;;;4992273;28;20089;-77
2022/05/17 00:46:21;;;;;;;16.80;6.20;;;15.90;99.90;;;;;;4955066;28;20051;-77
2022/05/17 00:49:36;;;;;;;16.20;7.13;;;15.90;99.90;;;;;;4993462;28;20074;-77
2022/05/17 00:53:03;;;;;;;13.80;6.45;;;15.80;99.90;;;;;;5047585;28;20052;-78
2022/05/17 00:56:22;;;;;;;18.50;7.10;;;15.80;99.90;;;;;;5019449;28;20083;-77
2022/05/17 01:03:15;;;;;;;14.98;6.38;;;15.70;99.90;;;;;;5030679;28;20080;-77
2022/05/17 01:07:04;;;;;;;20.05;6.55;;;15.70;99.90;;;;;;4999119;28;20095;-77
2022/05/17 01:10:12;;;;;;;16.17;6.85;;;15.60;99.90;;;;;;4995886;28;20053;-77
2022/05/17 01:14:57;;;;;;;17.90;6.13;;;15.60;99.90;;;;;;4999199;28;20034;-77
2022/05/17 01:15:52;;;;;;;23.60;6.95;;;15.60;99.90;;;;;;4958180;28;20653;-77
2022/05/17 01:19:13;;;;;;;14.80;6.18;;;15.60;99.90;;;;;;4964333;28;20085;-77
2022/05/17 01:22:05;;;;;;;15.23;6.43;;;15.60;99.90;;;;;;4954012;28;20050;-77
2022/05/17 01:25:52;;;;;;;19.05;6.20;;;15.50;99.90;;;;;;5009685;28;20122;-77
2022/05/17 01:28:29;;;;;;;17.33;6.50;;;15.50;99.90;;;;;;5019274;28;20041;-77
2022/05/17 01:31:25;;;;;;;16.95;6.95;;;15.50;99.90;;;;;;4994999;28;20033;-77
2022/05/17 01:34:27;;;;;;;16.23;7.05;;;15.50;99.90;;;;;;5023514;28;20071;-77
2022/05/17 01:37:15;;;;;;;15.45;6.53;;;15.50;99.90;;;;;;5029285;28;20045;-77
2022/05/17 01:40:48;;;;;;;15.65;6.38;;;15.40;99.90;;;;;;5032797;28;20048;-77
2022/05/17 01:44:18;;;;;;;15.18;6.45;;;15.40;99.90;;;;;;5015380;28;20055;-77
2022/05/17 01:47:23;;;;;;;16.52;7.32;;;15.30;99.90;;;;;;5016880;28;20113;-78
2022/05/17 01:50:52;;;;;;;19.88;7.95;;;15.30;99.90;;;;;;5021297;28;20127;-77
2022/05/17 01:54:04;;;;;;;19.95;7.75;;;15.30;99.90;;;;;;5014023;28;20038;-78
2022/05/17 01:56:43;;;;;;;18.02;8.20;;;15.20;99.90;;;;;;5000699;28;20050;-77
2022/05/17 01:59:40;;;;;;;17.13;7.90;;;15.20;99.90;;;;;;5014904;28;20041;-78
2022/05/17 02:02:39;;;;;;;16.75;7.38;;;15.20;99.90;;;;;;5014521;28;20049;-77
2022/05/17 02:05:12;;;;;;;15.23;7.47;;;15.20;99.90;;;;;;5023114;28;20052;-77
2022/05/17 02:08:12;;;;;;;19.08;7.47;;;15.10;99.90;;;;;;5047177;28;20098;-77
2022/05/17 02:10:40;;;;;;;15.30;8.00;;;15.20;99.90;;;;;;5017916;28;20041;-77
2022/05/17 02:13:44;;;;;;;15.63;7.75;;;15.10;99.90;;;;;;5025542;28;20045;-78
2022/05/17 02:16:29;;;;;;;18.45;8.45;;;15.10;99.90;;;;;;5010520;28;20045;-78
2022/05/17 02:19:41;;;;;;;19.80;8.35;;;15.00;99.90;;;;;;5004719;28;20112;-77
2022/05/17 02:22:47;;;;;;;17.52;9.07;;;15.00;99.90;;;;;;4912841;29;20044;-77
2022/05/17 02:25:31;;;;;;;18.00;8.13;;;15.00;99.90;;;;;;5002315;28;20467;-77
2022/05/17 02:28:30;;;;;;;18.77;8.95;;;14.90;99.90;;;;;;5013124;28;20056;-77
2022/05/17 02:31:04;;;;;;;15.02;8.15;;;14.90;99.90;;;;;;5024992;28;20045;-77
2022/05/17 02:33:30;;;;;;;17.13;7.85;;;14.90;99.90;;;;;;4996519;28;20042;-77
2022/05/17 02:35:55;;;;;;;17.75;9.02;;;15.30;99.90;;;;;;5021159;28;20040;-77
2022/05/17 02:38:21;;;;;;;16.88;7.97;;;15.60;99.90;;;;;;5004934;28;20044;-77
2022/05/17 02:40:46;;;;;;;18.17;8.85;;;14.80;99.90;;;;;;5017600;28;20130;-77
2022/05/17 02:43:13;;;;;;;14.57;8.18;;;14.80;99.90;;;;;;4992815;28;20045;-77
2022/05/17 02:45:40;;;;;;;16.92;8.57;;;14.80;99.90;;;;;;5001814;28;20033;-77
2022/05/17 02:48:06;;;;;;;19.58;8.40;;;15.50;99.90;;;;;;5009257;28;20131;-77
2022/05/17 02:50:32;;;;;;;18.63;8.45;;;14.80;99.90;;;;;;5018100;28;20041;-77
2022/05/17 02:52:57;;;;;;;16.58;9.27;;;14.70;99.90;;;;;;4999216;28;20560;-77
2022/05/17 02:55:24;;;;;;;18.88;9.00;;;15.20;99.90;;;;;;5010830;28;20047;-78
2022/05/17 02:57:50;;;;;;;18.45;8.55;;;14.70;99.90;;;;;;5009180;28;20120;-77
2022/05/17 03:00:17;;;;;;;17.13;8.27;;;15.20;99.90;;;;;;5023608;28;20037;-77
2022/05/17 03:02:43;;;;;;;17.75;8.90;;;14.60;99.90;;;;;;5009466;28;20037;-77
2022/05/17 03:05:11;;;;;;;16.20;9.00;;;14.60;99.90;;;;;;5003277;28;20041;-77
2022/05/17 03:07:37;;;;;;;18.80;8.95;;;14.60;99.90;;;;;;5006195;28;20405;-76
2022/05/17 03:10:03;;;;;;;21.42;9.13;;;15.50;99.90;;;;;;5014912;28;20041;-77
2022/05/17 03:12:29;;;;;;;17.55;8.77;;;14.60;99.90;;;;;;5008219;28;20068;-77
2022/05/17 03:14:54;;;;;;;18.38;8.77;;;15.00;99.90;;;;;;4999921;28;20040;-77
2022/05/17 03:17:20;;;;;;;17.52;9.25;;;14.50;99.90;;;;;;5024847;28;20041;-77
2022/05/17 03:19:45;;;;;;;16.08;8.77;;;14.50;99.90;;;;;;5023351;28;20037;-77
2022/05/17 03:22:12;;;;;;;14.98;8.68;;;14.50;99.90;;;;;;5014060;28;20046;-77
2022/05/17 03:24:38;;;;;;;16.52;8.93;;;14.40;99.90;;;;;;5020447;28;20037;-77
2022/05/17 03:27:05;;;;;;;14.82;8.05;;;14.60;99.90;;;;;;5039345;28;20133;-77
2022/05/17 03:29:32;;;;;;;17.92;8.73;;;14.40;99.90;;;;;;5025980;28;20041;-77
2022/05/17 03:31:59;;;;;;;17.80;8.95;;;14.40;99.90;;;;;;5026666;28;20448;-77
2022/05/17 03:34:25;;;;;;;16.83;8.55;;;14.90;99.90;;;;;;5014529;28;20159;-78
2022/05/17 03:36:51;;;;;;;23.30;9.50;;;14.30;99.90;;;;;;5009526;28;20137;-77
2022/05/17 03:39:17;;;;;;;17.40;8.98;;;14.30;99.90;;;;;;5002429;28;20108;-77
2022/05/17 03:41:42;;;;;;;18.90;9.35;;;14.00;99.90;;;;;;5010270;28;20069;-78
2022/05/17 03:44:08;;;;;;;18.05;8.93;;;14.30;99.90;;;;;;5015566;28;20065;-77
2022/05/17 03:46:34;;;;;;;17.17;8.75;;;14.30;99.90;;;;;;5018948;28;20033;-77
2022/05/17 03:49:00;;;;;;;18.35;8.90;;;14.60;99.90;;;;;;5028602;28;20045;-77
2022/05/17 03:51:27;;;;;;;16.98;8.70;;;14.10;99.90;;;;;;5014900;28;20045;-77
2022/05/17 03:53:53;;;;;;;19.27;9.05;;;14.70;99.90;;;;;;5032217;28;20111;-77
2022/05/17 03:56:19;;;;;;;19.10;9.10;;;14.20;99.90;;;;;;5021015;28;20489;-77
2022/05/17 03:58:45;;;;;;;18.00;9.45;;;14.40;99.90;;;;;;5046229;28;20041;-77
2022/05/17 04:01:12;;;;;;;17.90;8.88;;;14.90;99.90;;;;;;5016447;28;20549;-78
2022/05/17 04:03:38;;;;;;;16.15;8.55;;;14.70;99.90;;;;;;5013067;28;20030;-77
2022/05/17 04:06:04;;;;;;;16.45;8.05;;;14.10;99.90;;;;;;5013524;28;20045;-77
2022/05/17 04:08:30;;;;;;;20.38;8.70;;;14.50;99.90;;;;;;5010435;28;20049;-77
2022/05/17 04:10:56;;;;;;;17.27;8.48;;;14.60;99.90;;;;;;5037386;28;20044;-77
2022/05/17 04:13:22;;;;;;;15.40;8.77;;;14.00;99.90;;;;;;5016387;28;20029;-77
2022/05/17 04:15:49;;;;;;;18.92;8.50;;;14.60;99.90;;;;;;5033032;28;20112;-78
2022/05/17 04:18:15;;;;;;;18.58;8.15;;;14.30;99.90;;;;;;5033394;28;20072;-77
2022/05/17 04:20:40;;;;;;;17.95;8.65;;;14.10;99.90;;;;;;5010246;28;20493;-76
2022/05/17 04:23:06;;;;;;;15.88;7.93;;;14.20;99.90;;;;;;5014376;28;20133;-77
2022/05/17 04:25:32;;;;;;;13.23;8.50;;;14.20;99.90;;;;;;5014134;28;20352;-77
2022/05/17 04:27:57;;;;;;;16.50;8.35;;;14.00;99.90;;;;;;5022189;28;20065;-78
2022/05/17 04:30:24;;;;;;;16.25;8.68;;;14.20;99.90;;;;;;5000424;28;20052;-78
2022/05/17 04:32:50;;;;;;;21.63;9.65;;;14.20;99.90;;;;;;5007442;28;20030;-77
2022/05/17 04:35:17;;;;;;;19.38;9.48;;;14.30;99.90;;;;;;4993656;28;20053;-78
2022/05/17 04:37:43;;;;;;;19.00;9.05;;;14.20;99.90;;;;;;5001826;28;20058;-78
2022/05/17 04:40:10;;;;;;;16.95;8.48;;;14.20;99.90;;;;;;5005914;28;20041;-77
2022/05/17 04:42:37;;;;;;;20.02;9.15;;;14.30;99.90;;;;;;5016318;28;20236;-78
2022/05/17 04:45:05;;;;;;;17.13;8.70;;;14.50;99.90;;;;;;4995596;28;20077;-78
2022/05/17 04:47:31;;;;;;;16.20;9.10;;;14.20;99.90;;;;;;5012202;28;20063;-77
2022/05/17 04:49:56;;;;;;;19.33;8.82;;;14.20;99.90;;;;;;5018436;28;20509;-78
2022/05/17 04:52:23;;;;;;;19.23;9.13;;;14.30;99.90;;;;;;5031336;28;20509;-79
2022/05/17 04:54:50;;;;;;;17.65;8.65;;;14.40;99.90;;;;;;5009300;28;20124;-78
2022/05/17 04:57:16;;;;;;;19.77;9.60;;;15.10;99.90;;;;;;4997986;28;20481;-78
2022/05/17 04:59:42;;;;;;;17.75;9.20;;;14.50;99.90;;;;;;5025726;28;20038;-78
2022/05/17 05:02:08;;;;;;;19.15;9.30;;;14.60;99.90;;;;;;5004644;28;20037;-79
2022/05/17 05:04:34;;;;;;;20.42;9.23;;;15.10;99.90;;;;;;5024461;28;20034;-78
2022/05/17 05:07:00;;;;;;;17.00;8.68;;;14.70;99.90;;;;;;5013001;28;20040;-79
2022/05/17 05:09:26;;;;;;;19.77;9.13;;;14.90;99.90;;;;;;5006817;28;20048;-78
2022/05/17 05:11:52;;;;;;;22.10;9.20;;;14.90;99.90;;;;;;5005571;28;20037;-79
2022/05/17 05:14:17;;;;;;;18.40;8.93;;;15.40;99.90;;;;;;5005912;28;20069;-79
2022/05/17 05:16:43;;;;;;;17.58;8.57;;;14.90;99.90;;;;;;5020113;28;20033;-79
2022/05/17 05:19:08;;;;;;;16.48;7.85;;;14.90;99.90;;;;;;5008696;28;20057;-78
2022/05/17 05:21:34;;;;;;;17.98;8.50;;;14.80;99.90;;;;;;5012070;28;20040;-77
2022/05/17 05:24:00;;;;;;;15.98;8.20;;;15.80;99.90;;;;;;4991775;28;20433;-78
2022/05/17 05:26:26;;;;;;;17.58;7.95;;;15.80;99.90;;;;;;5006515;28;20490;-78
2022/05/17 05:28:52;;;;;;;18.02;8.25;;;15.70;99.90;;;;;;4995961;28;20140;-79
2022/05/17 05:31:17;;;;;;;17.25;8.10;;;15.20;99.90;;;;;;5051866;28;20041;-79
2022/05/17 05:33:43;;;;;;;17.65;8.02;;;15.20;99.90;;;;;;5037273;28;20056;-77
2022/05/17 05:36:10;;;;;;;14.52;7.18;;;16.10;99.90;;;;;;4994372;28;20045;-78
2022/05/17 05:38:36;;;;;;;15.25;7.63;;;15.70;99.90;;;;;;5001936;28;20124;-79
2022/05/17 05:41:02;;;;;;;17.50;7.68;;;15.50;99.90;;;;;;5007859;28;20041;-78
2022/05/17 05:43:28;;;;;;;16.48;7.47;;;15.30;99.90;;;;;;5028056;28;20045;-79
2022/05/17 05:45:54;;;;;;;17.77;7.53;;;15.40;99.90;;;;;;5000666;28;20048;-78
2022/05/17 05:48:20;;;;;;;21.75;8.20;;;15.40;99.90;;;;;;5008227;28;20088;-79
2022/05/17 05:50:47;;;;;;;18.17;7.25;;;16.10;99.90;;;;;;4998037;28;20046;-78
2022/05/17 05:53:14;;;;;;;17.75;7.47;;;15.10;99.90;;;;;;5051577;22;20035;-64
2022/05/17 05:55:40;;;;;;;17.00;7.28;;;15.50;99.90;;;;;;5070196;28;20107;-66
2022/05/17 05:58:07;;;;;;;16.75;6.65;;;15.50;99.90;;;;;;5065493;28;20123;-63
2022/05/17 06:00:34;;;;;;;19.20;7.75;;;15.60;99.90;;;;;;5047983;28;20037;-64
2022/05/17 06:03:00;;;;;;;18.98;7.45;;;15.60;99.90;;;;;;5048224;28;20372;-73
2022/05/17 06:05:26;;;;;;;18.88;7.80;;;15.60;99.90;;;;;;5049396;28;20052;-62
2022/05/17 06:07:52;;;;;;;16.10;7.00;;;15.70;99.90;;;;;;5050410;28;20122;-63
2022/05/17 06:10:20;;;;;;;18.45;7.57;;;15.70;99.90;;;;;;5049823;28;20352;-63
2022/05/17 06:12:46;;;;;;;14.80;6.63;;;15.70;99.90;;;;;;5050553;28;20040;-63
2022/05/17 06:15:11;;;;;;;17.17;7.00;;;15.80;99.90;;;;;;5050301;28;20398;-64
2022/05/17 06:17:38;;;;;;;15.65;6.32;;;15.70;99.90;;;;;;5050220;28;20114;-64
2022/05/17 06:20:06;;;;;;;17.08;7.05;;;15.70;99.90;;;;;;5049712;28;20514;-63
2022/05/17 06:22:32;;;;;;;17.27;6.72;;;15.80;99.90;;;;;;5049276;28;20064;-64
2022/05/17 06:24:57;;;;;;;15.35;6.30;;;15.80;99.90;;;;;;5050394;28;20041;-66
2022/05/17 06:27:24;;;;;;;16.13;6.70;;;15.80;99.90;;;;;;5049312;28;20080;-65
2022/05/17 06:29:49;;;;;;;14.50;5.82;;;15.80;99.90;;;;;;5050113;28;20041;-66
2022/05/17 06:32:15;;;;;;;16.83;6.45;;;15.90;99.90;;;;;;5049593;28;20120;-66
2022/05/17 06:34:42;;;;;;;16.10;6.00;;;15.90;99.90;;;;;;5033633;28;20045;-66
2022/05/17 06:37:08;;;;;;;15.43;6.22;;;15.90;99.90;;;;;;5032799;28;20041;-66
2022/05/17 06:39:35;;;;;;;13.95;5.80;;;16.00;99.90;;;;;;5033540;28;20069;-65
2022/05/17 06:42:02;;;;;;;15.43;6.20;;;16.00;99.90;;;;;;5032741;28;20038;-66
2022/05/17 06:44:28;;;;;;;15.98;6.05;;;16.10;99.90;;;;;;5032368;28;20048;-66
2022/05/17 06:46:54;;;;;;;17.95;6.25;;;16.10;99.90;;;;;;5032848;28;20041;-67
2022/05/17 06:49:21;;;;;;;14.73;5.82;;;16.20;99.90;;;;;;5031047;28;20141;-65
2022/05/17 06:51:47;;;;;;;17.90;6.10;;;16.20;99.90;;;;;;5034823;28;20041;-63
2022/05/17 06:54:13;;;;;;;21.42;6.90;;;16.20;99.90;;;;;;5039047;28;20033;-65
2022/05/17 06:56:38;;;;;;;16.77;6.13;;;16.20;99.90;;;;;;5034982;28;20076;-65
2022/05/17 06:59:04;;;;;;;15.93;6.03;;;16.30;99.90;;;;;;5047480;28;20044;-65
2022/05/17 07:01:30;;;;;;;18.80;6.78;;;16.30;99.90;;;;;;5049855;28;20033;-66
2022/05/17 07:03:55;;;;;;;15.20;7.20;;;16.30;99.90;;;;;;5048380;28;20491;-65
2022/05/17 07:06:21;;;;;;;19.73;7.00;;;16.30;99.90;;;;;;5050697;28;20286;-67
2022/05/17 07:08:47;;;;;;;18.80;7.10;;;16.30;99.90;;;;;;5046702;28;20508;-66
2022/05/17 07:13:58;;;;;;;15.52;6.55;;;16.40;99.90;;;;;;5060066;28;20064;-67
2022/05/17 07:16:24;;;;;;;18.40;7.00;;;16.50;99.90;;;;;;5061166;28;20172;-67
2022/05/17 07:18:50;;;;;;;19.33;7.00;;;16.50;99.90;;;;;;5058906;28;20029;-67
2022/05/17 07:21:16;;;;;;;17.20;6.60;;;16.50;99.90;;;;;;5060979;28;20045;-67
2022/05/17 07:23:42;;;;;;;16.42;6.00;;;16.50;99.90;;;;;;5061936;28;20040;-66
2022/05/17 07:26:09;;;;;;;21.50;6.35;;;16.60;99.90;;;;;;5061073;28;20096;-67
2022/05/17 07:28:44;;;;;;;20.70;6.03;;;16.60;99.90;;;;;;5062565;28;20037;-67
2022/05/17 07:31:10;;;;;;;18.42;6.55;;;16.60;99.90;;;;;;5063805;28;20506;-67
2022/05/17 07:33:36;;;;;;;16.58;5.82;;;16.70;99.90;;;;;;5063354;28;20413;-67
2022/05/17 07:36:03;;;;;;;14.90;5.60;;;16.80;99.90;;;;;;5064835;28;20056;-67
2022/05/17 07:38:28;;;;;;;17.98;6.07;;;16.80;99.90;;;;;;5061794;28;20048;-67
2022/05/17 07:40:54;;;;;;;18.02;5.55;;;16.90;99.90;;;;;;5064805;28;20041;-65
2022/05/17 07:43:21;;;;;;;15.75;5.90;;;17.00;99.90;;;;;;5064878;28;20040;-67
2022/05/17 07:45:49;;;;;;;16.77;5.05;;;17.00;99.90;;;;;;5065402;28;20063;-67
2022/05/17 07:48:17;;;;;;;15.70;5.32;;;17.10;99.90;;;;;;5062788;28;20049;-65
2022/05/17 07:50:42;;;;;;;13.32;4.75;;;17.20;99.90;;;;;;5067051;28;20096;-67
2022/05/17 07:53:12;;;;;;;16.30;5.90;;;17.20;99.90;;;;;;5068306;28;20521;-67
2022/05/17 07:55:39;;;;;;;22.90;5.65;;;17.30;99.90;;;;;;5065605;28;20045;-64
2022/05/17 07:58:06;;;;;;;13.68;5.40;;;17.40;99.90;;;;;;5064435;28;20056;-67
2022/05/17 08:00:32;;;;;;;15.40;5.47;;;17.50;99.90;;;;;;5067030;28;20061;-65
2022/05/17 08:02:59;;;;;;;14.52;5.22;;;17.50;99.90;;;;;;5067027;28;20084;-67
2022/05/17 08:05:27;;;;;;;15.27;4.72;;;17.70;99.90;;;;;;5069139;28;20052;-67
2022/05/17 08:07:54;;;;;;;14.43;5.07;;;17.70;99.90;;;;;;5066289;28;20037;-67
2022/05/17 08:10:20;;;;;;;20.38;5.60;;;17.90;99.90;;;;;;5050978;28;20090;-67
2022/05/17 08:12:46;;;;;;;15.93;5.30;;;18.00;99.90;;;;;;5047631;28;20045;-64
2022/05/17 08:15:13;;;;;;;14.27;5.25;;;18.20;99.90;;;;;;5049745;28;20048;-64
2022/05/17 08:17:39;;;;;;;27.77;6.18;;;18.30;99.90;;;;;;5056707;28;20045;-67
2022/05/17 08:20:09;;;;;;;16.85;4.57;;;18.50;99.90;;;;;;5065823;28;20040;-68
2022/05/17 08:22:37;;;;;;;20.88;5.22;;;18.60;99.90;;;;;;5054740;28;20098;-68
2022/05/17 08:27:47;;;;;;;12.43;3.65;;;19.10;99.90;;;;;;5043446;28;20046;-68
2022/05/17 08:30:17;;;;;;;16.00;4.10;;;19.40;99.90;;;;;;5050942;28;20044;-66
2022/05/17 08:35:49;;;;;;;17.63;4.40;;;19.70;99.90;;;;;;5043214;28;20073;-68
2022/05/17 08:38:30;;;;;;;15.15;3.97;;;19.90;99.90;;;;;;5043387;28;20041;-68
2022/05/17 08:41:24;;;;;;;16.00;4.40;;;20.20;99.90;;;;;;5047478;28;20088;-67
2022/05/17 08:43:55;;;;;;;14.00;3.97;;;20.40;99.90;;;;;;5038886;28;20033;-67
2022/05/17 08:46:25;;;;;;;14.20;5.05;;;20.70;99.90;;;;;;5032037;28;20495;-68
2022/05/17 08:49:11;;;;;;;10.52;3.75;;;20.80;99.90;;;;;;5008503;28;20045;-64
2022/05/17 08:52:02;;;;;;;11.30;3.50;;;20.90;99.90;;;;;;5043444;28;20037;-68
2022/05/17 08:54:40;;;;;;;9.00;3.20;;;21.00;99.90;;;;;;5054955;28;20044;-67
2022/05/17 08:57:40;;;;;;;10.10;3.40;;;20.90;99.90;;;;;;5043486;28;20379;-66
2022/05/17 09:00:09;;;;;;;13.43;2.63;;;20.90;99.90;;;;;;5042315;28;20279;-66
2022/05/17 09:02:56;;;;;;;8.13;2.50;;;20.90;99.90;;;;;;5046968;28;20045;-67
2022/05/17 09:05:35;;;;;;;7.82;2.50;;;20.90;99.90;;;;;;5035128;28;20043;-66
2022/05/17 09:08:32;;;;;;;10.20;2.80;;;20.90;99.60;;;;;;5048351;28;20045;-68
2022/05/17 09:11:16;;;;;;;8.43;2.47;;;21.00;99.90;;;;;;5049881;28;20100;-64
2022/05/17 09:14:09;;;;;;;9.77;2.65;;;20.90;99.90;;;;;;5038261;28;20045;-67
2022/05/17 09:16:39;;;;;;;10.30;2.83;;;21.00;99.90;;;;;;5044842;28;20078;-66
2022/05/17 09:19:05;;;;;;;13.60;2.95;;;21.10;99.90;;;;;;5045002;28;20495;-67
2022/05/17 09:21:36;;;;;;;11.32;2.92;;;21.30;99.90;;;;;;5045927;28;20059;-65
2022/05/17 09:24:12;;;;;;;9.85;3.05;;;21.40;99.50;;;;;;5045191;28;20067;-66
2022/05/17 09:26:39;;;;;;;9.45;2.60;;;21.40;98.40;;;;;;5045414;28;20037;-65
2022/05/17 09:29:14;;;;;;;11.73;2.72;;;21.30;98.70;;;;;;5044746;28;20071;-65
2022/05/17 09:31:45;;;;;;;8.15;3.13;;;21.20;97.80;;;;;;5045813;28;20511;-65
2022/05/17 09:34:11;;;;;;;10.32;2.70;;;21.10;97.70;;;;;;5036186;28;20136;-66
2022/05/17 09:36:48;;;;;;;11.75;3.30;;;20.80;97.00;;;;;;5044430;28;20448;-66
2022/05/17 09:39:23;;;;;;;10.05;2.85;;;20.70;96.90;;;;;;5228787;22;20059;-77
2022/05/17 09:41:49;;;;;;;10.35;2.55;;;20.50;97.30;;;;;;5041518;28;20095;-76
2022/05/17 09:44:24;;;;;;;10.40;2.88;;;20.40;97.30;;;;;;5037908;28;20745;-77
2022/05/17 09:46:55;;;;;;;12.25;2.85;;;20.30;97.40;;;;;;5029343;28;20041;-77
2022/05/17 09:52:33;;;;;;;12.75;3.03;;;20.20;97.60;;;;;;5036766;28;20060;-76
2022/05/17 09:55:12;;;;;;;7.70;2.60;;;20.10;97.80;;;;;;5040032;28;20048;-76
2022/05/17 09:57:49;;;;;;;11.30;2.70;;;20.00;97.80;;;;;;5046584;28;20044;-77
2022/05/17 10:00:23;;;;;;;9.32;2.72;;;20.00;98.00;;;;;;5037945;28;20060;-76
2022/05/17 10:02:53;;;;;;;9.00;2.35;;;19.90;98.10;;;;;;5038876;28;20032;-76
2022/05/17 10:05:21;;;;;;;9.18;2.55;;;19.90;98.00;;;;;;5040656;28;20098;-76
2022/05/17 10:08:14;;;;;;;12.50;3.08;;;19.90;97.70;;;;;;5042043;28;20421;-76
2022/05/17 10:10:44;;;;;;;10.25;2.50;;;19.90;97.60;;;;;;5028371;28;20044;-76
2022/05/17 10:13:28;;;;;;;12.07;2.47;;;19.80;97.70;;;;;;5045075;28;20083;-75
2022/05/17 10:16:09;;;;;;;13.90;2.78;;;19.70;98.20;;;;;;5022721;28;21727;-76
2022/05/17 10:18:44;;;;;;;8.93;2.72;;;19.70;98.20;;;;;;5042671;28;20516;-76
2022/05/17 10:21:19;;;;;;;12.20;3.05;;;19.60;98.20;;;;;;5034298;28;20044;-75
2022/05/17 10:24:00;;;;;;;16.05;3.40;;;19.60;98.10;;;;;;5034308;28;20049;-76
2022/05/17 10:26:33;;;;;;;11.40;3.40;;;19.50;97.80;;;;;;5037023;28;20117;-76
2022/05/17 10:29:32;;;;;;;9.32;2.50;;;19.50;97.90;;;;;;5037369;28;20044;-75
2022/05/17 10:32:11;;;;;;;11.30;2.53;;;19.50;98.00;;;;;;5026169;28;20049;-76
2022/05/17 10:34:51;;;;;;;11.02;3.03;;;19.60;98.40;;;;;;5021295;28;20041;-76
2022/05/17 10:37:25;;;;;;;10.75;2.75;;;19.60;99.00;;;;;;5047690;28;20048;-76
2022/05/17 10:40:01;;;;;;;13.38;3.38;;;19.70;99.30;;;;;;5036472;28;20455;-76
2022/05/17 10:42:28;;;;;;;14.60;4.30;;;19.90;99.50;;;;;;5021940;28;20056;-76
2022/05/17 10:44:56;;;;;;;15.50;4.78;;;20.00;99.90;;;;;;5025967;28;20049;-76
2022/05/17 10:47:46;;;;;;;12.45;4.32;;;20.10;99.90;;;;;;5034710;28;20116;-76
2022/05/17 10:50:21;;;;;;;14.93;5.53;;;20.30;99.90;;;;;;5045121;28;20041;-76
2022/05/17 10:52:55;;;;;;;16.80;5.47;;;20.40;99.90;;;;;;5044225;28;20123;-76
2022/05/17 10:55:39;;;;;;;12.50;4.45;;;20.50;99.90;;;;;;5045190;28;20390;-76
2022/05/17 10:58:35;;;;;;;14.57;4.68;;;20.60;99.90;;;;;;5041587;28;20095;-75
2022/05/17 11:01:26;;;;;;;18.17;4.97;;;20.60;99.90;;;;;;4990941;28;20045;-76
2022/05/17 11:04:35;;;;;;;15.05;4.70;;;20.60;99.90;;;;;;5043324;28;20044;-76
2022/05/17 11:07:03;;;;;;;13.35;4.43;;;20.60;99.90;;;;;;5045614;28;20041;-76
2022/05/17 11:09:43;;;;;;;17.85;5.95;;;20.70;99.90;;;;;;5050481;28;20036;-76
2022/05/17 11:12:12;;;;;;;15.02;5.30;;;20.70;99.90;;;;;;5059814;28;20048;-76
2022/05/17 11:14:52;;;;;;;16.15;6.10;;;20.60;99.90;;;;;;5045459;28;20045;-75
2022/05/17 11:17:28;;;;;;;11.60;5.35;;;20.70;99.90;;;;;;5040797;28;20052;-76
2022/05/17 11:20:09;;;;;;;17.00;5.72;;;20.60;99.90;;;;;;5053043;28;20045;-76
2022/05/17 11:22:59;;;;;;;14.98;5.07;;;20.60;99.90;;;;;;5045993;28;20045;-76
2022/05/17 11:25:58;;;;;;;14.70;5.30;;;20.60;99.90;;;;;;5034800;28;20045;-76
2022/05/17 11:28:50;;;;;;;16.77;5.15;;;20.50;99.90;;;;;;5032134;28;20041;-76
2022/05/17 11:31:17;;;;;;;;;;;20.60;99.90;;;;;;5056464;28;20076;-76
2022/05/17 11:33:43;;;;;;;13.60;4.88;;;20.60;99.90;;;;;;5045255;28;19927;-76
2022/05/17 11:36:37;;;;;;;13.15;4.60;;;20.60;99.90;;;;;;5040728;28;20041;-76
2022/05/17 11:39:03;;;;;;;9.43;3.83;;;20.60;99.90;;;;;;5041005;28;20060;-76
2022/05/17 11:41:42;;;;;;;13.60;4.38;;;20.60;99.90;;;;;;5062479;28;20550;-76
2022/05/17 11:44:18;;;;;;;17.15;5.40;;;20.60;99.90;;;;;;5041141;28;20054;-76
2022/05/17 11:46:50;;;;;;;11.98;4.45;;;20.50;99.90;;;;;;5046546;28;20051;-76
2022/05/17 11:49:15;;;;;;;12.18;4.57;;;20.50;99.90;;;;;;5035291;28;20048;-77
2022/05/17 11:51:59;;;;;;;8.55;4.18;;;20.40;99.90;;;;;;5035619;28;20044;-76
2022/05/17 11:54:55;;;;;;;13.68;5.05;;;20.30;99.90;;;;;;5076256;22;20370;-65
2022/05/17 11:57:23;;;;;;;14.13;5.00;;;20.20;99.90;;;;;;5047570;28;20166;-65
2022/05/17 11:59:58;;;;;;;14.65;5.55;;;20.20;99.90;;;;;;5036245;28;20029;-65
2022/05/17 12:02:48;;;;;;;15.73;5.13;;;20.10;99.90;;;;;;5033166;28;20225;-65
2022/05/17 12:05:41;;;;;;;13.55;5.10;;;20.00;99.90;;;;;;5046597;28;20032;-65
2022/05/17 12:08:28;;;;;;;17.90;5.10;;;20.00;99.90;;;;;;5050883;28;20581;-65
2022/05/17 12:11:09;;;;;;;14.93;4.85;;;20.00;99.90;;;;;;5053041;28;20526;-65
2022/05/17 12:13:45;;;;;;;10.90;4.60;;;20.00;99.90;;;;;;5052750;28;20036;-65
2022/05/17 12:16:17;;;;;;;14.00;5.03;;;20.00;99.90;;;;;;5025493;28;20495;-65
2022/05/17 12:18:47;;;;;;;14.93;4.80;;;20.10;99.90;;;;;;5047662;28;20040;-65
2022/05/17 12:21:21;;;;;;;13.27;4.32;;;20.20;99.90;;;;;;5052712;28;20558;-65
2022/05/17 12:23:53;;;;;;;11.48;4.38;;;20.30;99.90;;;;;;5033932;28;20086;-65
2022/05/17 12:26:35;;;;;;;16.30;4.65;;;20.40;99.90;;;;;;5036918;28;20028;-65
2022/05/17 12:32:01;;;;;;;13.57;5.18;;;20.70;99.90;;;;;;5052733;28;20053;-65
2022/05/17 12:34:27;;;;;;;14.30;4.70;;;20.80;99.90;;;;;;5051511;28;20072;-65
2022/05/17 12:37:16;;;;;;;11.70;4.28;;;21.00;99.90;;;;;;5052371;28;20060;-65
2022/05/17 12:45:19;;;;;;;12.57;4.60;;;22.10;99.90;;;;;;5051244;28;20509;-65
2022/05/17 12:47:56;;;;;;;8.20;4.28;;;22.40;99.90;;;;;;5033686;28;20037;-65
2022/05/17 12:50:41;;;;;;;13.45;4.57;;;22.60;99.30;;;;;;5034202;28;20041;-65
2022/05/17 12:53:41;;;;;;;8.05;3.70;;;22.80;98.80;;;;;;5027964;28;20034;-65
2022/05/17 12:56:09;;;;;;;11.80;3.80;;;22.90;97.80;;;;;;4974528;28;20523;-65
2022/05/17 12:58:48;;;;;;;8.75;3.60;;;23.10;97.50;;;;;;5026253;28;20029;-65
2022/05/17 13:01:14;;;;;;;7.28;3.20;;;23.30;97.00;;;;;;5051809;28;20422;-65
2022/05/17 13:03:44;;;;;;;13.43;2.90;;;23.40;96.80;;;;;;5044931;28;20068;-65
2022/05/17 13:06:09;;;;;;;8.55;2.92;;;23.50;96.40;;;;;;5049684;28;20041;-65
2022/05/17 13:08:38;;;;;;;9.25;3.40;;;23.60;95.60;;;;;;5033135;28;20510;-65
2022/05/17 13:11:04;;;;;;;7.38;2.92;;;23.50;95.00;;;;;;5033260;28;20037;-65
2022/05/17 13:13:34;;;;;;;7.65;3.08;;;23.50;95.10;;;;;;5051577;28;20052;-65
2022/05/17 13:16:25;;;;;;;9.05;2.92;;;23.60;95.10;;;;;;5050717;28;20243;-65
2022/05/17 13:19:00;;;;;;;12.20;3.33;;;23.70;95.50;;;;;;5051103;28;20029;-65
2022/05/17 13:21:32;;;;;;;11.45;3.00;;;23.90;94.50;;;;;;5033484;28;20470;-65
2022/05/17 13:24:01;;;;;;;10.63;2.88;;;24.10;94.60;;;;;;5033740;28;20051;-65
2022/05/17 13:26:33;;;;;;;9.88;3.17;;;24.20;94.10;;;;;;5030518;28;20064;-65
2022/05/17 13:29:29;;;;;;;7.70;3.20;;;24.10;92.90;;;;;;5028667;28;20049;-65
2022/05/17 13:31:59;;;;;;;8.45;3.13;;;24.10;92.70;;;;;;5033408;28;20045;-65
2022/05/17 13:34:31;;;;;;;9.73;3.15;;;24.00;93.10;;;;;;5033419;28;20060;-65
2022/05/17 13:37:11;;;;;;;9.02;3.38;;;24.10;93.10;;;;;;5049913;28;20067;-65
2022/05/17 13:39:50;;;;;;;8.82;2.45;;;24.20;93.40;;;;;;5032789;28;20099;-65
2022/05/17 13:42:26;;;;;;;8.02;2.90;;;24.50;93.50;;;;;;5033381;28;20033;-65
2022/05/17 13:44:54;;;;;;;5.50;2.20;;;24.70;93.10;;;;;;5051065;28;20526;-65
2022/05/17 13:47:24;;;;;;;7.60;3.38;;;24.80;92.90;;;;;;5049474;28;20040;-65
2022/05/17 13:49:51;;;;;;;8.25;2.80;;;25.00;92.50;;;;;;5051034;28;20072;-65
2022/05/17 13:52:32;;;;;;;6.30;2.53;;;25.00;92.40;;;;;;5046434;28;20048;-65